sensor_id;sensor_type;location;lat;lon;timestamp;pressure;altitude;pressure_sealevel;temperature;humidity
28312;BME280;15572;48.810;9.148;2022-09-17T00:00:38;97791.75;;;9.93;100.00
28312;BME280;15572;48.810;9.148;2022-09-17T00:05:36;97788.38;;;9.85;100.00
28312;BME280;15572;48.810;9.148;2022-09-17T00:10:36;97789.56;;;9.76;100.00
28312;BME280;15572;48.810;9.148;2022-09-17T00:15:40;97793.31;;;9.75;100.00
28312;BME280;15572;48.810;9.148;2022-09-17T00:20:38;97794.56;;;9.72;100.00
28312;BME280;15572;48.810;9.148;2022-09-17T00:25:36;97802.66;;;9.72;100.00
28312;BME280;15572;48.810;9.148;2022-09-17T00:30:34;97800.59;;;9.74;100.00
28312;BME280;15572;48.810;9.148;2022-09-17T00:35:32;97799.97;;;9.79;100.00
28312;BME280;15572;48.810;9.148;2022-09-17T00:40:28;97803.53;;;9.79;100.00
28312;BME280;15572;48.810;9.148;2022-09-17T00:45:25;97798.75;;;9.81;100.00
28312;BME280;15572;48.810;9.148;2022-09-17T00:50:26;97792.69;;;9.79;100.00
28312;BME280;15572;48.810;9.148;2022-09-17T00:55:28;97798.31;;;9.78;100.00
28312;BME280;15572;48.810;9.148;2022-09-17T01:00:27;97790.00;;;9.79;100.00
28312;BME280;15572;48.810;9.148;2022-09-17T01:05:30;97798.91;;;9.73;100.00
28312;BME280;15572;48.810;9.148;2022-09-17T01:10:46;97802.66;;;9.72;100.00
28312;BME280;15572;48.810;9.148;2022-09-17T01:15:49;97814.28;;;9.66;100.00
28312;BME280;15572;48.810;9.148;2022-09-17T01:21:13;97809.03;;;9.58;100.00
28312;BME280;15572;48.810;9.148;2022-09-17T01:26:33;97817.13;;;9.58;100.00
28312;BME280;15572;48.810;9.148;2022-09-17T01:31:39;97820.03;;;9.56;100.00
28312;BME280;15572;48.810;9.148;2022-09-17T01:36:55;97814.44;;;9.58;100.00
28312;BME280;15572;48.810;9.148;2022-09-17T01:41:57;97819.84;;;9.58;100.00
28312;BME280;15572;48.810;9.148;2022-09-17T01:47:04;97830.03;;;9.62;100.00
28312;BME280;15572;48.810;9.148;2022-09-17T01:52:06;97835.69;;;9.67;100.00
28312;BME280;15572;48.810;9.148;2022-09-17T01:57:08;97831.94;;;9.68;100.00
28312;BME280;15572;48.810;9.148;2022-09-17T02:02:12;97840.94;;;9.76;100.00
28312;BME280;15572;48.810;9.148;2022-09-17T02:07:15;97833.06;;;9.81;100.00
28312;BME280;15572;48.810;9.148;2022-09-17T02:12:18;97829.47;;;9.73;100.00
28312;BME280;15572;48.810;9.148;2022-09-17T02:17:23;97834.66;;;9.68;100.00
28312;BME280;15572;48.810;9.148;2022-09-17T02:22:24;97813.44;;;9.65;100.00
28312;BME280;15572;48.810;9.148;2022-09-17T02:27:32;97820.06;;;9.63;100.00
28312;BME280;15572;48.810;9.148;2022-09-17T02:32:32;97820.72;;;9.65;100.00
28312;BME280;15572;48.810;9.148;2022-09-17T02:37:29;97820.72;;;9.65;100.00
28312;BME280;15572;48.810;9.148;2022-09-17T02:42:31;97816.56;;;9.69;100.00
28312;BME280;15572;48.810;9.148;2022-09-17T02:47:51;97821.56;;;9.65;100.00
28312;BME280;15572;48.810;9.148;2022-09-17T02:53:04;97812.97;;;9.62;100.00
28312;BME280;15572;48.810;9.148;2022-09-17T02:58:10;97815.63;;;9.49;100.00
28312;BME280;15572;48.810;9.148;2022-09-17T03:03:14;97810.34;;;9.34;100.00
28312;BME280;15572;48.810;9.148;2022-09-17T03:08:13;97811.38;;;9.33;100.00
28312;BME280;15572;48.810;9.148;2022-09-17T03:13:10;97806.09;;;9.25;100.00
28312;BME280;15572;48.810;9.148;2022-09-17T03:18:06;97812.50;;;9.17;100.00
28312;BME280;15572;48.810;9.148;2022-09-17T03:23:04;97807.72;;;9.13;100.00
28312;BME280;15572;48.810;9.148;2022-09-17T03:28:01;97815.75;;;9.06;100.00
28312;BME280;15572;48.810;9.148;2022-09-17T03:32:57;97806.75;;;8.99;100.00
28312;BME280;15572;48.810;9.148;2022-09-17T03:37:54;97820.66;;;8.96;100.00
28312;BME280;15572;48.810;9.148;2022-09-17T03:42:52;97822.53;;;8.96;100.00
28312;BME280;15572;48.810;9.148;2022-09-17T03:47:48;97827.19;;;8.87;100.00
28312;BME280;15572;48.810;9.148;2022-09-17T03:52:45;97838.41;;;8.84;100.00
28312;BME280;15572;48.810;9.148;2022-09-17T03:57:41;97839.19;;;8.78;100.00
28312;BME280;15572;48.810;9.148;2022-09-17T04:02:39;97850.81;;;8.78;100.00
28312;BME280;15572;48.810;9.148;2022-09-17T04:07:36;97848.28;;;8.77;100.00
28312;BME280;15572;48.810;9.148;2022-09-17T04:12:32;97850.63;;;8.80;100.00
28312;BME280;15572;48.810;9.148;2022-09-17T04:17:29;97846.69;;;8.82;100.00
28312;BME280;15572;48.810;9.148;2022-09-17T04:22:26;97849.25;;;8.91;100.00
28312;BME280;15572;48.810;9.148;2022-09-17T04:27:23;97835.31;;;8.87;100.00
28312;BME280;15572;48.810;9.148;2022-09-17T04:32:19;97848.63;;;8.88;100.00
28312;BME280;15572;48.810;9.148;2022-09-17T04:37:16;97853.06;;;8.96;100.00
28312;BME280;15572;48.810;9.148;2022-09-17T04:42:14;97861.41;;;9.01;100.00
28312;BME280;15572;48.810;9.148;2022-09-17T04:47:11;97873.88;;;9.02;100.00
28312;BME280;15572;48.810;9.148;2022-09-17T04:52:07;97876.19;;;9.05;100.00
28312;BME280;15572;48.810;9.148;2022-09-17T04:57:04;97873.91;;;9.09;100.00
28312;BME280;15572;48.810;9.148;2022-09-17T05:02:01;97881.00;;;9.10;100.00
28312;BME280;15572;48.810;9.148;2022-09-17T05:06:58;97883.88;;;9.08;100.00
28312;BME280;15572;48.810;9.148;2022-09-17T05:11:54;97888.66;;;9.06;100.00
28312;BME280;15572;48.810;9.148;2022-09-17T05:16:51;97876.63;;;9.09;100.00
28312;BME280;15572;48.810;9.148;2022-09-17T05:21:49;97880.69;;;8.98;100.00
28312;BME280;15572;48.810;9.148;2022-09-17T05:26:45;97884.16;;;8.92;100.00
28312;BME280;15572;48.810;9.148;2022-09-17T05:31:42;97883.53;;;8.90;100.00
28312;BME280;15572;48.810;9.148;2022-09-17T05:36:38;97891.44;;;8.92;100.00
28312;BME280;15572;48.810;9.148;2022-09-17T05:41:36;97890.13;;;8.87;100.00
28312;BME280;15572;48.810;9.148;2022-09-17T05:46:32;97893.66;;;8.88;100.00
28312;BME280;15572;48.810;9.148;2022-09-17T05:51:29;97899.47;;;8.85;100.00
28312;BME280;15572;48.810;9.148;2022-09-17T05:56:26;97902.41;;;8.90;100.00
28312;BME280;15572;48.810;9.148;2022-09-17T06:01:24;97911.44;;;8.97;100.00
28312;BME280;15572;48.810;9.148;2022-09-17T06:06:20;97908.84;;;9.10;100.00
28312;BME280;15572;48.810;9.148;2022-09-17T06:11:17;97914.81;;;9.27;100.00
28312;BME280;15572;48.810;9.148;2022-09-17T06:16:13;97925.91;;;9.39;100.00
28312;BME280;15572;48.810;9.148;2022-09-17T06:21:11;97925.13;;;9.45;100.00
28312;BME280;15572;48.810;9.148;2022-09-17T06:26:08;97932.41;;;9.44;100.00
28312;BME280;15572;48.810;9.148;2022-09-17T06:31:06;97937.88;;;9.51;100.00
28312;BME280;15572;48.810;9.148;2022-09-17T06:36:04;97941.94;;;9.68;100.00
28312;BME280;15572;48.810;9.148;2022-09-17T06:41:03;97943.06;;;9.80;100.00
28312;BME280;15572;48.810;9.148;2022-09-17T06:46:01;97942.09;;;9.88;100.00
28312;BME280;15572;48.810;9.148;2022-09-17T06:51:01;97946.25;;;9.90;100.00
28312;BME280;15572;48.810;9.148;2022-09-17T06:55:59;97948.94;;;9.90;100.00
28312;BME280;15572;48.810;9.148;2022-09-17T07:00:58;97964.81;;;9.93;100.00
28312;BME280;15572;48.810;9.148;2022-09-17T07:05:56;97950.03;;;9.68;100.00
28312;BME280;15572;48.810;9.148;2022-09-17T07:10:54;97966.66;;;9.65;100.00
28312;BME280;15572;48.810;9.148;2022-09-17T07:15:52;97969.41;;;9.44;100.00
28312;BME280;15572;48.810;9.148;2022-09-17T07:20:54;97972.19;;;9.29;100.00
28312;BME280;15572;48.810;9.148;2022-09-17T07:25:52;97972.19;;;9.08;100.00
28312;BME280;15572;48.810;9.148;2022-09-17T07:30:49;97979.56;;;8.99;100.00
28312;BME280;15572;48.810;9.148;2022-09-17T07:35:51;97984.16;;;8.84;100.00
28312;BME280;15572;48.810;9.148;2022-09-17T07:40:57;97991.06;;;8.86;100.00
28312;BME280;15572;48.810;9.148;2022-09-17T07:45:55;97993.94;;;8.85;100.00
28312;BME280;15572;48.810;9.148;2022-09-17T07:50:52;97998.88;;;8.81;100.00
28312;BME280;15572;48.810;9.148;2022-09-17T07:55:52;97992.22;;;8.99;100.00
28312;BME280;15572;48.810;9.148;2022-09-17T08:00:50;98002.16;;;9.13;100.00
28312;BME280;15572;48.810;9.148;2022-09-17T08:05:46;98008.56;;;9.12;100.00
28312;BME280;15572;48.810;9.148;2022-09-17T08:10:43;98013.00;;;9.19;100.00
28312;BME280;15572;48.810;9.148;2022-09-17T08:15:39;98009.53;;;9.25;100.00
28312;BME280;15572;48.810;9.148;2022-09-17T08:20:37;98016.75;;;9.40;100.00
28312;BME280;15572;48.810;9.148;2022-09-17T08:25:33;98009.66;;;9.60;100.00
28312;BME280;15572;48.810;9.148;2022-09-17T08:30:30;98014.00;;;9.82;100.00
28312;BME280;15572;48.810;9.148;2022-09-17T08:35:27;98010.41;;;9.75;100.00
28312;BME280;15572;48.810;9.148;2022-09-17T08:40:25;98012.53;;;9.80;100.00
28312;BME280;15572;48.810;9.148;2022-09-17T08:45:22;98011.75;;;9.86;100.00
28312;BME280;15572;48.810;9.148;2022-09-17T08:50:26;98016.19;;;10.00;100.00
28312;BME280;15572;48.810;9.148;2022-09-17T08:55:30;98017.94;;;10.35;100.00
28312;BME280;15572;48.810;9.148;2022-09-17T09:00:34;98028.31;;;10.66;100.00
28312;BME280;15572;48.810;9.148;2022-09-17T09:05:41;98017.50;;;10.79;100.00
28312;BME280;15572;48.810;9.148;2022-09-17T09:10:45;98026.13;;;10.89;100.00
28312;BME280;15572;48.810;9.148;2022-09-17T09:15:50;98028.72;;;10.70;100.00
28312;BME280;15572;48.810;9.148;2022-09-17T09:20:50;98028.13;;;10.68;100.00
28312;BME280;15572;48.810;9.148;2022-09-17T09:25:54;98015.41;;;10.68;100.00
28312;BME280;15572;48.810;9.148;2022-09-17T09:31:01;98016.28;;;10.82;100.00
28312;BME280;15572;48.810;9.148;2022-09-17T09:36:00;98023.91;;;11.13;100.00
28312;BME280;15572;48.810;9.148;2022-09-17T09:41:05;98029.75;;;11.16;100.00
28312;BME280;15572;48.810;9.148;2022-09-17T09:46:21;98020.34;;;11.12;100.00
28312;BME280;15572;48.810;9.148;2022-09-17T09:51:31;98018.44;;;11.06;100.00
28312;BME280;15572;48.810;9.148;2022-09-17T09:56:49;98035.81;;;11.25;100.00
28312;BME280;15572;48.810;9.148;2022-09-17T10:01:47;98018.97;;;11.43;100.00
28312;BME280;15572;48.810;9.148;2022-09-17T10:06:45;98022.13;;;11.66;99.00
28312;BME280;15572;48.810;9.148;2022-09-17T10:11:58;98028.22;;;11.88;94.53
28312;BME280;15572;48.810;9.148;2022-09-17T10:17:16;98019.63;;;11.64;94.30
28312;BME280;15572;48.810;9.148;2022-09-17T10:22:25;98021.53;;;12.10;91.65
28312;BME280;15572;48.810;9.148;2022-09-17T10:27:24;98021.94;;;12.20;89.11
28312;BME280;15572;48.810;9.148;2022-09-17T10:32:22;98014.38;;;12.48;88.37
28312;BME280;15572;48.810;9.148;2022-09-17T10:37:35;98014.28;;;12.68;89.48
28312;BME280;15572;48.810;9.148;2022-09-17T10:42:38;98004.28;;;12.55;85.09
28312;BME280;15572;48.810;9.148;2022-09-17T10:47:36;98015.97;;;12.69;81.04
28312;BME280;15572;48.810;9.148;2022-09-17T10:52:37;98007.56;;;12.84;81.78
28312;BME280;15572;48.810;9.148;2022-09-17T10:57:53;97989.16;;;12.86;80.88
28312;BME280;15572;48.810;9.148;2022-09-17T11:03:17;97980.06;;;13.05;75.39
28312;BME280;15572;48.810;9.148;2022-09-17T11:08:24;97983.81;;;13.48;74.62
28312;BME280;15572;48.810;9.148;2022-09-17T11:13:35;97992.97;;;13.79;73.00
28312;BME280;15572;48.810;9.148;2022-09-17T11:18:36;97987.13;;;13.82;70.06
28312;BME280;15572;48.810;9.148;2022-09-17T11:24:00;97976.56;;;13.92;68.58
28312;BME280;15572;48.810;9.148;2022-09-17T11:29:17;97974.56;;;14.49;66.58
28312;BME280;15572;48.810;9.148;2022-09-17T11:34:27;97967.00;;;14.51;67.42
28312;BME280;15572;48.810;9.148;2022-09-17T11:39:29;97967.34;;;14.36;69.67
28312;BME280;15572;48.810;9.148;2022-09-17T11:44:32;97961.75;;;14.86;61.65
28312;BME280;15572;48.810;9.148;2022-09-17T11:49:34;97963.31;;;15.23;60.61
28312;BME280;15572;48.810;9.148;2022-09-17T11:54:37;97963.59;;;15.03;61.46
28312;BME280;15572;48.810;9.148;2022-09-17T11:59:41;97953.66;;;14.79;62.35
28312;BME280;15572;48.810;9.148;2022-09-17T12:04:42;97959.09;;;14.24;63.51
28312;BME280;15572;48.810;9.148;2022-09-17T12:09:41;97968.56;;;13.72;71.86
28312;BME280;15572;48.810;9.148;2022-09-17T12:14:45;97956.84;;;13.16;81.11
28312;BME280;15572;48.810;9.148;2022-09-17T12:19:47;97942.16;;;12.85;85.52
28312;BME280;15572;48.810;9.148;2022-09-17T12:24:45;97964.53;;;12.81;89.19
28312;BME280;15572;48.810;9.148;2022-09-17T12:29:59;97953.28;;;13.15;89.45
28312;BME280;15572;48.810;9.148;2022-09-17T12:35:02;97951.03;;;14.11;73.35
28312;BME280;15572;48.810;9.148;2022-09-17T12:40:13;97948.91;;;13.70;74.88
28312;BME280;15572;48.810;9.148;2022-09-17T12:45:28;97963.44;;;12.88;85.39
28312;BME280;15572;48.810;9.148;2022-09-17T12:50:38;97961.75;;;12.36;91.70
28312;BME280;15572;48.810;9.148;2022-09-17T12:55:48;97965.81;;;11.94;96.94
28312;BME280;15572;48.810;9.148;2022-09-17T13:00:54;97962.47;;;11.72;98.04
28312;BME280;15572;48.810;9.148;2022-09-17T13:06:33;97974.78;;;11.42;100.00
28312;BME280;15572;48.810;9.148;2022-09-17T13:11:59;97976.91;;;10.79;100.00
28312;BME280;15572;48.810;9.148;2022-09-17T13:17:04;97991.06;;;10.75;100.00
28312;BME280;15572;48.810;9.148;2022-09-17T13:22:04;97977.00;;;11.12;100.00
28312;BME280;15572;48.810;9.148;2022-09-17T13:27:04;97990.72;;;10.97;100.00
28312;BME280;15572;48.810;9.148;2022-09-17T13:32:03;97987.84;;;11.06;100.00
28312;BME280;15572;48.810;9.148;2022-09-17T13:36:59;97974.56;;;11.37;100.00
28312;BME280;15572;48.810;9.148;2022-09-17T13:42:00;97969.16;;;11.63;100.00
28312;BME280;15572;48.810;9.148;2022-09-17T13:47:13;97967.69;;;12.00;100.00
28312;BME280;15572;48.810;9.148;2022-09-17T13:52:12;97986.44;;;12.21;100.00
28312;BME280;15572;48.810;9.148;2022-09-17T13:57:11;97961.09;;;12.54;97.35
28312;BME280;15572;48.810;9.148;2022-09-17T14:02:35;97965.25;;;12.56;95.48
28312;BME280;15572;48.810;9.148;2022-09-17T14:07:44;97957.28;;;12.61;93.78
28312;BME280;15572;48.810;9.148;2022-09-17T14:12:54;97963.44;;;12.88;93.64
28312;BME280;15572;48.810;9.148;2022-09-17T14:17:53;97958.66;;;13.28;89.51
28312;BME280;15572;48.810;9.148;2022-09-17T14:22:55;97960.00;;;13.06;91.17
28312;BME280;15572;48.810;9.148;2022-09-17T14:27:56;97955.06;;;13.34;87.90
28312;BME280;15572;48.810;9.148;2022-09-17T14:33:01;97950.72;;;13.52;86.25
28312;BME280;15572;48.810;9.148;2022-09-17T14:38:03;97945.81;;;13.67;83.51
28312;BME280;15572;48.810;9.148;2022-09-17T14:43:03;97944.56;;;13.63;83.74
28312;BME280;15572;48.810;9.148;2022-09-17T14:48:25;97952.44;;;13.77;83.52
28312;BME280;15572;48.810;9.148;2022-09-17T14:53:23;97955.03;;;13.66;85.18
28312;BME280;15572;48.810;9.148;2022-09-17T14:58:29;97949.84;;;13.58;83.78
28312;BME280;15572;48.810;9.148;2022-09-17T15:03:28;97957.16;;;13.32;86.13
28312;BME280;15572;48.810;9.148;2022-09-17T15:08:25;97946.81;;;13.41;85.66
28312;BME280;15572;48.810;9.148;2022-09-17T15:13:26;97946.41;;;13.69;84.76
28312;BME280;15572;48.810;9.148;2022-09-17T15:18:33;97944.19;;;13.34;83.48
28312;BME280;15572;48.810;9.148;2022-09-17T15:23:32;97941.31;;;13.23;83.62
28312;BME280;15572;48.810;9.148;2022-09-17T15:28:33;97938.72;;;13.03;84.69
28312;BME280;15572;48.810;9.148;2022-09-17T15:33:33;97953.84;;;12.86;85.91
28312;BME280;15572;48.810;9.148;2022-09-17T15:38:30;97958.25;;;12.87;86.01
28312;BME280;15572;48.810;9.148;2022-09-17T15:43:29;97952.34;;;12.90;85.71
28312;BME280;15572;48.810;9.148;2022-09-17T15:48:36;97944.59;;;12.93;87.29
28312;BME280;15572;48.810;9.148;2022-09-17T15:53:34;97941.06;;;13.31;85.38
28312;BME280;15572;48.810;9.148;2022-09-17T15:58:36;97934.41;;;13.52;83.72
28312;BME280;15572;48.810;9.148;2022-09-17T16:04:07;97937.44;;;13.12;85.60
28312;BME280;15572;48.810;9.148;2022-09-17T16:09:40;97942.91;;;12.99;84.90
28312;BME280;15572;48.810;9.148;2022-09-17T16:14:37;97951.72;;;12.88;83.22
28312;BME280;15572;48.810;9.148;2022-09-17T16:19:34;97956.56;;;12.86;83.14
28312;BME280;15572;48.810;9.148;2022-09-17T16:24:33;97955.41;;;13.06;81.67
28312;BME280;15572;48.810;9.148;2022-09-17T16:29:30;97952.75;;;13.31;81.05
28312;BME280;15572;48.810;9.148;2022-09-17T16:34:26;97948.81;;;13.27;81.73
28312;BME280;15572;48.810;9.148;2022-09-17T16:39:24;97959.56;;;13.16;83.41
28312;BME280;15572;48.810;9.148;2022-09-17T16:44:21;97962.38;;;12.89;84.21
28312;BME280;15572;48.810;9.148;2022-09-17T16:49:17;97956.59;;;12.79;87.63
28312;BME280;15572;48.810;9.148;2022-09-17T16:54:14;97953.91;;;12.66;88.76
28312;BME280;15572;48.810;9.148;2022-09-17T16:59:12;97952.09;;;12.53;90.24
28312;BME280;15572;48.810;9.148;2022-09-17T17:04:08;97961.09;;;12.47;90.91
28312;BME280;15572;48.810;9.148;2022-09-17T17:09:05;97995.19;;;12.37;100.00
28312;BME280;15572;48.810;9.148;2022-09-17T17:14:01;98008.56;;;11.53;100.00
28312;BME280;15572;48.810;9.148;2022-09-17T17:19:00;97989.50;;;11.00;100.00
28312;BME280;15572;48.810;9.148;2022-09-17T17:23:57;97979.59;;;10.73;100.00
28312;BME280;15572;48.810;9.148;2022-09-17T17:28:53;97981.22;;;10.61;100.00
28312;BME280;15572;48.810;9.148;2022-09-17T17:33:50;97990.31;;;10.53;100.00
28312;BME280;15572;48.810;9.148;2022-09-17T17:38:48;98010.94;;;10.54;100.00
28312;BME280;15572;48.810;9.148;2022-09-17T17:43:44;98007.25;;;10.62;100.00
28312;BME280;15572;48.810;9.148;2022-09-17T17:48:41;98024.09;;;10.57;100.00
28312;BME280;15572;48.810;9.148;2022-09-17T17:53:40;98019.06;;;10.54;100.00
28312;BME280;15572;48.810;9.148;2022-09-17T17:58:39;98019.16;;;10.33;100.00
28312;BME280;15572;48.810;9.148;2022-09-17T18:03:35;98015.38;;;10.27;100.00
28312;BME280;15572;48.810;9.148;2022-09-17T18:08:34;98021.16;;;10.18;100.00
28312;BME280;15572;48.810;9.148;2022-09-17T18:13:31;98026.03;;;10.07;100.00
28312;BME280;15572;48.810;9.148;2022-09-17T18:18:33;98031.84;;;10.04;100.00
28312;BME280;15572;48.810;9.148;2022-09-17T18:23:32;98042.66;;;10.04;100.00
28312;BME280;15572;48.810;9.148;2022-09-17T18:28:30;98040.69;;;9.92;100.00
28312;BME280;15572;48.810;9.148;2022-09-17T18:33:27;98044.84;;;9.88;100.00
28312;BME280;15572;48.810;9.148;2022-09-17T18:38:25;98052.09;;;9.87;100.00
28312;BME280;15572;48.810;9.148;2022-09-17T18:43:21;98045.47;;;9.90;100.00
28312;BME280;15572;48.810;9.148;2022-09-17T18:48:18;98061.25;;;9.86;100.00
28312;BME280;15572;48.810;9.148;2022-09-17T18:53:14;98059.28;;;10.01;100.00
28312;BME280;15572;48.810;9.148;2022-09-17T18:58:12;98097.31;;;10.21;100.00
28312;BME280;15572;48.810;9.148;2022-09-17T19:03:08;98074.66;;;10.01;100.00
28312;BME280;15572;48.810;9.148;2022-09-17T19:08:05;98111.97;;;9.84;100.00
28312;BME280;15572;48.810;9.148;2022-09-17T19:13:01;98132.16;;;9.46;100.00
28312;BME280;15572;48.810;9.148;2022-09-17T19:17:59;98116.72;;;8.74;100.00
28312;BME280;15572;48.810;9.148;2022-09-17T19:22:56;98122.59;;;8.78;100.00
28312;BME280;15572;48.810;9.148;2022-09-17T19:27:52;98141.81;;;8.45;100.00
28312;BME280;15572;48.810;9.148;2022-09-17T19:32:50;98122.78;;;8.24;100.00
28312;BME280;15572;48.810;9.148;2022-09-17T19:37:48;98124.34;;;8.19;100.00
28312;BME280;15572;48.810;9.148;2022-09-17T19:42:50;98137.28;;;8.23;100.00
28312;BME280;15572;48.810;9.148;2022-09-17T19:47:47;98144.53;;;8.45;100.00
28312;BME280;15572;48.810;9.148;2022-09-17T19:52:45;98162.41;;;8.47;100.00
28312;BME280;15572;48.810;9.148;2022-09-17T19:57:43;98167.72;;;8.55;100.00
28312;BME280;15572;48.810;9.148;2022-09-17T20:02:39;98170.78;;;8.52;100.00
28312;BME280;15572;48.810;9.148;2022-09-17T20:07:36;98168.47;;;8.49;100.00
28312;BME280;15572;48.810;9.148;2022-09-17T20:12:32;98165.56;;;8.50;100.00
28312;BME280;15572;48.810;9.148;2022-09-17T20:17:30;98171.34;;;8.47;100.00
28312;BME280;15572;48.810;9.148;2022-09-17T20:22:26;98172.06;;;8.41;100.00
28312;BME280;15572;48.810;9.148;2022-09-17T20:27:23;98173.81;;;8.34;100.00
28312;BME280;15572;48.810;9.148;2022-09-17T20:32:20;98175.19;;;8.30;100.00
28312;BME280;15572;48.810;9.148;2022-09-17T20:37:17;98169.81;;;8.30;100.00
28312;BME280;15572;48.810;9.148;2022-09-17T20:42:14;98160.84;;;8.29;100.00
28312;BME280;15572;48.810;9.148;2022-09-17T20:47:10;98163.53;;;8.29;100.00
28312;BME280;15572;48.810;9.148;2022-09-17T20:52:07;98176.03;;;8.30;100.00
28312;BME280;15572;48.810;9.148;2022-09-17T20:57:05;98168.91;;;8.37;100.00
28312;BME280;15572;48.810;9.148;2022-09-17T21:02:01;98188.53;;;8.46;100.00
28312;BME280;15572;48.810;9.148;2022-09-17T21:06:58;98189.59;;;8.60;100.00
28312;BME280;15572;48.810;9.148;2022-09-17T21:11:55;98193.72;;;8.70;100.00
28312;BME280;15572;48.810;9.148;2022-09-17T21:16:53;98211.09;;;8.82;100.00
28312;BME280;15572;48.810;9.148;2022-09-17T21:21:49;98197.72;;;8.74;100.00
28312;BME280;15572;48.810;9.148;2022-09-17T21:26:49;98188.47;;;8.83;100.00
28312;BME280;15572;48.810;9.148;2022-09-17T21:31:47;98202.19;;;8.97;100.00
28312;BME280;15572;48.810;9.148;2022-09-17T21:36:45;98202.19;;;8.97;100.00
28312;BME280;15572;48.810;9.148;2022-09-17T21:41:44;98211.13;;;8.97;100.00
28312;BME280;15572;48.810;9.148;2022-09-17T21:46:42;98215.47;;;8.98;100.00
28312;BME280;15572;48.810;9.148;2022-09-17T21:51:39;98207.09;;;8.93;100.00
28312;BME280;15572;48.810;9.148;2022-09-17T21:56:38;98208.97;;;8.93;100.00
28312;BME280;15572;48.810;9.148;2022-09-17T22:01:36;98205.06;;;8.95;100.00
28312;BME280;15572;48.810;9.148;2022-09-17T22:06:34;98213.00;;;8.97;100.00
28312;BME280;15572;48.810;9.148;2022-09-17T22:11:34;98206.53;;;8.98;100.00
28312;BME280;15572;48.810;9.148;2022-09-17T22:16:32;98209.16;;;8.91;100.00
28312;BME280;15572;48.810;9.148;2022-09-17T22:21:31;98214.91;;;8.88;100.00
28312;BME280;15572;48.810;9.148;2022-09-17T22:26:30;98210.53;;;8.87;100.00
28312;BME280;15572;48.810;9.148;2022-09-17T22:31:27;98210.94;;;8.84;100.00
28312;BME280;15572;48.810;9.148;2022-09-17T22:36:25;98206.38;;;8.84;100.00
28312;BME280;15572;48.810;9.148;2022-09-17T22:41:23;98200.13;;;8.84;100.00
28312;BME280;15572;48.810;9.148;2022-09-17T22:46:23;98200.13;;;8.84;100.00
28312;BME280;15572;48.810;9.148;2022-09-17T22:51:20;98196.41;;;8.85;100.00
28312;BME280;15572;48.810;9.148;2022-09-17T22:56:19;98191.63;;;8.87;100.00
28312;BME280;15572;48.810;9.148;2022-09-17T23:01:19;98188.94;;;8.87;100.00
28312;BME280;15572;48.810;9.148;2022-09-17T23:06:18;98186.06;;;8.88;100.00
28312;BME280;15572;48.810;9.148;2022-09-17T23:11:18;98195.94;;;8.96;100.00
28312;BME280;15572;48.810;9.148;2022-09-17T23:16:15;98197.06;;;9.02;100.00
28312;BME280;15572;48.810;9.148;2022-09-17T23:21:15;98200.69;;;9.09;100.00
28312;BME280;15572;48.810;9.148;2022-09-17T23:26:13;98204.69;;;9.13;100.00
28312;BME280;15572;48.810;9.148;2022-09-17T23:31:14;98200.69;;;9.09;100.00
28312;BME280;15572;48.810;9.148;2022-09-17T23:36:12;98199.75;;;9.02;100.00
28312;BME280;15572;48.810;9.148;2022-09-17T23:41:11;98207.03;;;9.01;100.00
28312;BME280;15572;48.810;9.148;2022-09-17T23:46:08;98202.63;;;9.15;100.00
28312;BME280;15572;48.810;9.148;2022-09-17T23:51:07;98201.63;;;9.16;100.00
28312;BME280;15572;48.810;9.148;2022-09-17T23:56:10;98199.09;;;9.14;100.00
